• Join FlightAware (Why Join?)
  • Login
  • US Flag 
07:09AM EDT


 

Airport Tracker/Info


-or-


 

Live Flight TrackerFlight Track Log ✈ N50KC ✈ 19-Jun-2013 ✈ KTEB - KOXC

Flight Track Log - Related Links

Times and Time Zones

All times are in EDT time to prevent confusion due to time zone crossing. See the N50KC flight status page for this flight to view local times or setup timezone preferences in your user account.

Time Position Orientation Groundspeed Altitude Reporting Facility
EDT Latitude Longitude Course Direction KTS MPH feet Rate Location/Type
05:47PM 40.9000 -74.0333 311° West 207 238 2,000  Level New York TRACON
05:48PM 40.9333 -74.0833 311° West 215 247 2,000 1,440 Level New York TRACON
05:49PM 40.9667 -74.1667 298° West 247 284 4,900 1,980 Climbing New York TRACON
05:50PM 41.0333 -74.1667 360° North 273 314 6,000 540 Climbing New York TRACON
05:51PM 41.1000 -74.1500 11° North 265 305 6,000  Level New York TRACON
05:52PM 41.1667 -74.0833 37° Northeast 269 310 6,000  Level New York TRACON
05:53PM 41.1833 -74.0000 75° East 275 316 6,000 -120 Level New York TRACON
05:54PM 41.2167 -73.9000 66° East 279 321 5,800 -360 Descending New York TRACON
05:55PM 41.2333 -73.8000 77° East 273 314 5,300 -420 Descending New York TRACON
05:56PM 41.2500 -73.7000 77° East 269 310 5,000 -180 Descending New York TRACON
05:57PM 41.2667 -73.6000 77° East 270 311 5,000  Level New York TRACON
05:58PM 41.3000 -73.5000 66° East 273 314 5,000 -180 Level New York TRACON
05:59PM 41.3167 -73.4167 75° East 270 311 4,700 -540 Descending New York TRACON
06:00PM 41.3333 -73.3167 77° East 259 298 4,000 -600 Descending New York TRACON
06:01PM 41.3500 -73.2333 75° East 223 257 3,500 -540 Descending New York TRACON
06:02PM 41.3667 -73.1667 72° East 183 211 3,000 -540 Descending New York TRACON
06:03PM 41.3833 -73.1167 66° East 168 193 2,500 -720 Descending New York TRACON
06:04PM 41.4333 -73.1167 360° North 146 168 1,600 -780 Descending New York TRACON
06:05PM 41.4500 -73.1333 323° Northwest 110 127 1,000 -300 Descending New York TRACON
06:06PM 41.4833 -73.1333 360° North 113 130 1,000  Level New York TRACON
06:08PM 41.4786 -73.1352 180° South  Level Estimated
06:15PM 41.4786 -73.1352 180° South  Level Estimated
06:16PM 41.4786 -73.1352 180° South  Level Estimated